sensor_id;sensor_type;location;lat;lon;timestamp;P1;durP1;ratioP1;P2;durP2;ratioP2
75007;SDS011;63554;48.940;12.050;2023-03-29T00:02:33;0.50;;;0.50;;
75007;SDS011;63554;48.940;12.050;2023-03-29T00:06:37;0.43;;;0.43;;
75007;SDS011;63554;48.940;12.050;2023-03-29T00:10:42;0.30;;;0.30;;
75007;SDS011;63554;48.940;12.050;2023-03-29T00:14:44;0.90;;;0.30;;
75007;SDS011;63554;48.940;12.050;2023-03-29T00:18:47;1.00;;;0.75;;
75007;SDS011;63554;48.940;12.050;2023-03-29T00:22:51;0.22;;;0.22;;
75007;SDS011;63554;48.940;12.050;2023-03-29T00:26:54;1.75;;;0.57;;
75007;SDS011;63554;48.940;12.050;2023-03-29T00:31:02;0.98;;;0.43;;
75007;SDS011;63554;48.940;12.050;2023-03-29T00:35:07;0.43;;;0.43;;
75007;SDS011;63554;48.940;12.050;2023-03-29T00:39:11;1.17;;;0.50;;
75007;SDS011;63554;48.940;12.050;2023-03-29T00:43:14;0.80;;;0.80;;
75007;SDS011;63554;48.940;12.050;2023-03-29T00:47:17;0.38;;;0.38;;
75007;SDS011;63554;48.940;12.050;2023-03-29T00:51:26;0.25;;;0.25;;
75007;SDS011;63554;48.940;12.050;2023-03-29T00:55:34;0.25;;;0.25;;
75007;SDS011;63554;48.940;12.050;2023-03-29T00:59:39;0.55;;;0.55;;
75007;SDS011;63554;48.940;12.050;2023-03-29T01:03:44;0.32;;;0.32;;
75007;SDS011;63554;48.940;12.050;2023-03-29T01:07:52;0.32;;;0.32;;
75007;SDS011;63554;48.940;12.050;2023-03-29T01:12:02;2.05;;;1.35;;
75007;SDS011;63554;48.940;12.050;2023-03-29T01:16:10;0.38;;;0.38;;
75007;SDS011;63554;48.940;12.050;2023-03-29T01:20:16;1.00;;;0.75;;
75007;SDS011;63554;48.940;12.050;2023-03-29T01:24:27;0.30;;;0.30;;
75007;SDS011;63554;48.940;12.050;2023-03-29T01:28:50;1.20;;;0.63;;
75007;SDS011;63554;48.940;12.050;2023-03-29T01:32:58;0.20;;;0.20;;
75007;SDS011;63554;48.940;12.050;2023-03-29T01:37:08;0.45;;;0.45;;
75007;SDS011;63554;48.940;12.050;2023-03-29T01:41:13;0.28;;;0.28;;
75007;SDS011;63554;48.940;12.050;2023-03-29T01:45:21;1.40;;;1.25;;
75007;SDS011;63554;48.940;12.050;2023-03-29T01:49:29;0.77;;;0.77;;
75007;SDS011;63554;48.940;12.050;2023-03-29T01:53:36;0.38;;;0.38;;
75007;SDS011;63554;48.940;12.050;2023-03-29T01:57:41;1.50;;;0.38;;
75007;SDS011;63554;48.940;12.050;2023-03-29T02:01:48;0.75;;;0.52;;
75007;SDS011;63554;48.940;12.050;2023-03-29T02:05:54;0.50;;;0.50;;
75007;SDS011;63554;48.940;12.050;2023-03-29T02:09:59;0.35;;;0.35;;
75007;SDS011;63554;48.940;12.050;2023-03-29T02:14:03;0.20;;;0.20;;
75007;SDS011;63554;48.940;12.050;2023-03-29T02:18:08;0.55;;;0.30;;
75007;SDS011;63554;48.940;12.050;2023-03-29T02:22:11;0.73;;;0.70;;
75007;SDS011;63554;48.940;12.050;2023-03-29T02:26:16;1.17;;;0.70;;
75007;SDS011;63554;48.940;12.050;2023-03-29T02:30:19;0.73;;;0.70;;
75007;SDS011;63554;48.940;12.050;2023-03-29T02:34:25;0.98;;;0.55;;
75007;SDS011;63554;48.940;12.050;2023-03-29T02:38:32;0.88;;;0.70;;
75007;SDS011;63554;48.940;12.050;2023-03-29T02:42:36;0.30;;;0.30;;
75007;SDS011;63554;48.940;12.050;2023-03-29T02:46:39;0.45;;;0.45;;
75007;SDS011;63554;48.940;12.050;2023-03-29T02:50:44;1.10;;;1.05;;
75007;SDS011;63554;48.940;12.050;2023-03-29T02:54:49;0.88;;;0.60;;
75007;SDS011;63554;48.940;12.050;2023-03-29T02:58:55;0.32;;;0.30;;
75007;SDS011;63554;48.940;12.050;2023-03-29T03:02:58;0.32;;;0.32;;
75007;SDS011;63554;48.940;12.050;2023-03-29T03:07:03;0.70;;;0.65;;
75007;SDS011;63554;48.940;12.050;2023-03-29T03:11:06;0.55;;;0.52;;
75007;SDS011;63554;48.940;12.050;2023-03-29T03:15:10;2.00;;;0.52;;
75007;SDS011;63554;48.940;12.050;2023-03-29T03:19:13;0.30;;;0.30;;
75007;SDS011;63554;48.940;12.050;2023-03-29T03:23:18;0.30;;;0.30;;
75007;SDS011;63554;48.940;12.050;2023-03-29T03:27:20;1.33;;;0.80;;
75007;SDS011;63554;48.940;12.050;2023-03-29T03:31:23;0.80;;;0.70;;
75007;SDS011;63554;48.940;12.050;2023-03-29T03:35:26;2.30;;;1.13;;
75007;SDS011;63554;48.940;12.050;2023-03-29T03:39:30;4.60;;;0.73;;
75007;SDS011;63554;48.940;12.050;2023-03-29T03:43:33;1.10;;;1.00;;
75007;SDS011;63554;48.940;12.050;2023-03-29T03:47:36;1.23;;;0.52;;
75007;SDS011;63554;48.940;12.050;2023-03-29T03:51:39;0.40;;;0.40;;
75007;SDS011;63554;48.940;12.050;2023-03-29T03:55:47;1.13;;;0.57;;
75007;SDS011;63554;48.940;12.050;2023-03-29T03:59:51;0.45;;;0.45;;
75007;SDS011;63554;48.940;12.050;2023-03-29T04:03:53;0.47;;;0.47;;
75007;SDS011;63554;48.940;12.050;2023-03-29T04:07:56;0.43;;;0.43;;
75007;SDS011;63554;48.940;12.050;2023-03-29T04:12:00;0.15;;;0.15;;
75007;SDS011;63554;48.940;12.050;2023-03-29T04:16:03;0.40;;;0.40;;
75007;SDS011;63554;48.940;12.050;2023-03-29T04:20:07;0.57;;;0.22;;
75007;SDS011;63554;48.940;12.050;2023-03-29T04:24:12;0.50;;;0.50;;
75007;SDS011;63554;48.940;12.050;2023-03-29T04:28:17;0.38;;;0.35;;
75007;SDS011;63554;48.940;12.050;2023-03-29T04:32:19;0.50;;;0.50;;
75007;SDS011;63554;48.940;12.050;2023-03-29T04:36:22;0.80;;;0.80;;
75007;SDS011;63554;48.940;12.050;2023-03-29T04:40:25;1.38;;;1.27;;
75007;SDS011;63554;48.940;12.050;2023-03-29T04:44:30;1.45;;;1.05;;
75007;SDS011;63554;48.940;12.050;2023-03-29T04:48:33;2.95;;;1.90;;
75007;SDS011;63554;48.940;12.050;2023-03-29T04:52:37;3.22;;;1.38;;
75007;SDS011;63554;48.940;12.050;2023-03-29T04:56:41;0.82;;;0.82;;
75007;SDS011;63554;48.940;12.050;2023-03-29T05:00:45;0.40;;;0.35;;
75007;SDS011;63554;48.940;12.050;2023-03-29T05:04:47;1.48;;;0.77;;
75007;SDS011;63554;48.940;12.050;2023-03-29T05:08:50;0.85;;;0.65;;
75007;SDS011;63554;48.940;12.050;2023-03-29T05:12:53;0.77;;;0.77;;
75007;SDS011;63554;48.940;12.050;2023-03-29T05:16:57;0.50;;;0.50;;
75007;SDS011;63554;48.940;12.050;2023-03-29T05:21:01;0.70;;;0.70;;
75007;SDS011;63554;48.940;12.050;2023-03-29T05:25:05;0.93;;;0.57;;
75007;SDS011;63554;48.940;12.050;2023-03-29T05:29:09;0.60;;;0.40;;
75007;SDS011;63554;48.940;12.050;2023-03-29T05:33:14;0.60;;;0.60;;
75007;SDS011;63554;48.940;12.050;2023-03-29T05:37:16;2.20;;;0.50;;
75007;SDS011;63554;48.940;12.050;2023-03-29T05:41:19;0.40;;;0.40;;
75007;SDS011;63554;48.940;12.050;2023-03-29T05:45:22;0.52;;;0.43;;
75007;SDS011;63554;48.940;12.050;2023-03-29T05:49:30;1.55;;;0.70;;
75007;SDS011;63554;48.940;12.050;2023-03-29T05:53:33;1.10;;;1.00;;
75007;SDS011;63554;48.940;12.050;2023-03-29T05:57:35;1.77;;;1.00;;
75007;SDS011;63554;48.940;12.050;2023-03-29T06:01:39;1.17;;;1.08;;
75007;SDS011;63554;48.940;12.050;2023-03-29T06:05:44;1.13;;;1.08;;
75007;SDS011;63554;48.940;12.050;2023-03-29T06:09:50;1.77;;;1.10;;
75007;SDS011;63554;48.940;12.050;2023-03-29T06:13:52;2.88;;;1.17;;
75007;SDS011;63554;48.940;12.050;2023-03-29T06:17:55;0.68;;;0.68;;
75007;SDS011;63554;48.940;12.050;2023-03-29T06:21:59;1.65;;;1.25;;
75007;SDS011;63554;48.940;12.050;2023-03-29T06:26:03;0.88;;;0.70;;
75007;SDS011;63554;48.940;12.050;2023-03-29T06:30:06;0.63;;;0.60;;
75007;SDS011;63554;48.940;12.050;2023-03-29T06:34:10;1.55;;;1.08;;
75007;SDS011;63554;48.940;12.050;2023-03-29T06:38:15;2.70;;;1.50;;
75007;SDS011;63554;48.940;12.050;2023-03-29T06:42:18;1.77;;;1.40;;
75007;SDS011;63554;48.940;12.050;2023-03-29T06:46:22;1.23;;;1.10;;
75007;SDS011;63554;48.940;12.050;2023-03-29T06:50:24;1.73;;;1.45;;
75007;SDS011;63554;48.940;12.050;2023-03-29T06:54:29;3.60;;;1.40;;
75007;SDS011;63554;48.940;12.050;2023-03-29T06:58:31;1.67;;;1.00;;
75007;SDS011;63554;48.940;12.050;2023-03-29T07:02:34;1.35;;;1.00;;
75007;SDS011;63554;48.940;12.050;2023-03-29T07:06:38;5.50;;;2.25;;
75007;SDS011;63554;48.940;12.050;2023-03-29T07:10:43;0.63;;;0.60;;
75007;SDS011;63554;48.940;12.050;2023-03-29T07:14:47;0.52;;;0.50;;
75007;SDS011;63554;48.940;12.050;2023-03-29T07:18:50;1.08;;;0.90;;
75007;SDS011;63554;48.940;12.050;2023-03-29T07:22:53;1.13;;;1.02;;
75007;SDS011;63554;48.940;12.050;2023-03-29T07:26:57;0.85;;;0.60;;
75007;SDS011;63554;48.940;12.050;2023-03-29T07:31:05;2.08;;;0.90;;
75007;SDS011;63554;48.940;12.050;2023-03-29T07:35:13;0.40;;;0.40;;
75007;SDS011;63554;48.940;12.050;2023-03-29T07:39:17;0.90;;;0.85;;
75007;SDS011;63554;48.940;12.050;2023-03-29T07:43:22;0.82;;;0.77;;
75007;SDS011;63554;48.940;12.050;2023-03-29T07:47:25;0.80;;;0.80;;
75007;SDS011;63554;48.940;12.050;2023-03-29T07:51:29;0.40;;;0.30;;
75007;SDS011;63554;48.940;12.050;2023-03-29T07:55:31;0.85;;;0.70;;
75007;SDS011;63554;48.940;12.050;2023-03-29T07:59:36;1.83;;;0.98;;
75007;SDS011;63554;48.940;12.050;2023-03-29T08:03:38;1.05;;;0.98;;
75007;SDS011;63554;48.940;12.050;2023-03-29T08:07:41;1.90;;;1.50;;
75007;SDS011;63554;48.940;12.050;2023-03-29T08:11:46;1.30;;;1.25;;
75007;SDS011;63554;48.940;12.050;2023-03-29T08:15:50;1.30;;;1.05;;
75007;SDS011;63554;48.940;12.050;2023-03-29T08:19:53;1.77;;;1.65;;
75007;SDS011;63554;48.940;12.050;2023-03-29T08:23:56;1.13;;;0.65;;
75007;SDS011;63554;48.940;12.050;2023-03-29T08:27:59;1.10;;;1.05;;
75007;SDS011;63554;48.940;12.050;2023-03-29T08:32:03;1.63;;;1.00;;
75007;SDS011;63554;48.940;12.050;2023-03-29T08:36:07;1.73;;;1.15;;
75007;SDS011;63554;48.940;12.050;2023-03-29T08:40:10;0.75;;;0.60;;
75007;SDS011;63554;48.940;12.050;2023-03-29T08:44:23;1.17;;;1.05;;
75007;SDS011;63554;48.940;12.050;2023-03-29T08:48:44;1.15;;;1.05;;
75007;SDS011;63554;48.940;12.050;2023-03-29T08:52:55;1.55;;;1.13;;
75007;SDS011;63554;48.940;12.050;2023-03-29T08:57:00;1.20;;;1.13;;
75007;SDS011;63554;48.940;12.050;2023-03-29T09:01:12;2.15;;;1.67;;
75007;SDS011;63554;48.940;12.050;2023-03-29T09:05:19;1.58;;;0.93;;
75007;SDS011;63554;48.940;12.050;2023-03-29T09:09:28;1.50;;;1.13;;
75007;SDS011;63554;48.940;12.050;2023-03-29T09:13:36;1.08;;;0.93;;
75007;SDS011;63554;48.940;12.050;2023-03-29T09:17:51;3.63;;;2.88;;
75007;SDS011;63554;48.940;12.050;2023-03-29T09:22:05;1.85;;;1.40;;
75007;SDS011;63554;48.940;12.050;2023-03-29T09:26:18;1.50;;;1.30;;
75007;SDS011;63554;48.940;12.050;2023-03-29T09:30:29;2.22;;;2.00;;
75007;SDS011;63554;48.940;12.050;2023-03-29T09:34:37;2.13;;;1.27;;
75007;SDS011;63554;48.940;12.050;2023-03-29T09:38:46;1.10;;;0.80;;
75007;SDS011;63554;48.940;12.050;2023-03-29T09:42:54;4.05;;;1.77;;
75007;SDS011;63554;48.940;12.050;2023-03-29T09:47:00;1.50;;;0.75;;
75007;SDS011;63554;48.940;12.050;2023-03-29T09:51:08;1.48;;;0.75;;
75007;SDS011;63554;48.940;12.050;2023-03-29T09:55:15;0.80;;;0.57;;
75007;SDS011;63554;48.940;12.050;2023-03-29T09:59:21;1.65;;;1.17;;
75007;SDS011;63554;48.940;12.050;2023-03-29T10:03:24;2.67;;;1.98;;
75007;SDS011;63554;48.940;12.050;2023-03-29T10:07:32;1.65;;;1.20;;
75007;SDS011;63554;48.940;12.050;2023-03-29T10:11:46;3.05;;;1.42;;
75007;SDS011;63554;48.940;12.050;2023-03-29T10:15:57;1.40;;;1.10;;
75007;SDS011;63554;48.940;12.050;2023-03-29T10:20:05;1.67;;;0.95;;
75007;SDS011;63554;48.940;12.050;2023-03-29T10:24:16;1.73;;;1.42;;
75007;SDS011;63554;48.940;12.050;2023-03-29T10:28:21;1.42;;;1.17;;
75007;SDS011;63554;48.940;12.050;2023-03-29T10:32:27;2.05;;;1.25;;
75007;SDS011;63554;48.940;12.050;2023-03-29T10:36:34;1.33;;;1.23;;
75007;SDS011;63554;48.940;12.050;2023-03-29T10:40:42;1.13;;;0.85;;
75007;SDS011;63554;48.940;12.050;2023-03-29T10:44:53;1.88;;;0.90;;
75007;SDS011;63554;48.940;12.050;2023-03-29T10:48:57;2.75;;;1.20;;
75007;SDS011;63554;48.940;12.050;2023-03-29T10:53:03;2.03;;;1.48;;
75007;SDS011;63554;48.940;12.050;2023-03-29T10:57:12;1.65;;;1.55;;
75007;SDS011;63554;48.940;12.050;2023-03-29T11:01:25;1.38;;;0.82;;
75007;SDS011;63554;48.940;12.050;2023-03-29T11:05:37;2.05;;;1.48;;
75007;SDS011;63554;48.940;12.050;2023-03-29T11:09:45;1.98;;;1.33;;
75007;SDS011;63554;48.940;12.050;2023-03-29T11:13:56;1.35;;;1.13;;
75007;SDS011;63554;48.940;12.050;2023-03-29T11:18:14;3.33;;;1.88;;
75007;SDS011;63554;48.940;12.050;2023-03-29T11:22:34;2.97;;;2.25;;
75007;SDS011;63554;48.940;12.050;2023-03-29T11:26:45;4.00;;;1.65;;
75007;SDS011;63554;48.940;12.050;2023-03-29T11:30:58;2.83;;;1.73;;
75007;SDS011;63554;48.940;12.050;2023-03-29T11:35:17;1.55;;;1.35;;
75007;SDS011;63554;48.940;12.050;2023-03-29T11:39:29;1.73;;;1.50;;
75007;SDS011;63554;48.940;12.050;2023-03-29T11:43:41;1.40;;;0.95;;
75007;SDS011;63554;48.940;12.050;2023-03-29T11:47:48;2.00;;;1.60;;
75007;SDS011;63554;48.940;12.050;2023-03-29T11:51:57;3.75;;;1.90;;
75007;SDS011;63554;48.940;12.050;2023-03-29T11:56:07;2.30;;;1.50;;
75007;SDS011;63554;48.940;12.050;2023-03-29T12:00:14;1.92;;;1.60;;
75007;SDS011;63554;48.940;12.050;2023-03-29T12:04:23;2.53;;;1.60;;
75007;SDS011;63554;48.940;12.050;2023-03-29T12:08:33;2.58;;;1.95;;
75007;SDS011;63554;48.940;12.050;2023-03-29T12:12:41;2.88;;;1.55;;
75007;SDS011;63554;48.940;12.050;2023-03-29T12:16:47;3.72;;;2.05;;
75007;SDS011;63554;48.940;12.050;2023-03-29T12:20:54;1.60;;;1.48;;
75007;SDS011;63554;48.940;12.050;2023-03-29T12:25:02;3.58;;;2.05;;
75007;SDS011;63554;48.940;12.050;2023-03-29T12:29:14;3.97;;;2.22;;
75007;SDS011;63554;48.940;12.050;2023-03-29T12:33:33;1.85;;;1.60;;
75007;SDS011;63554;48.940;12.050;2023-03-29T12:37:47;2.78;;;2.45;;
75007;SDS011;63554;48.940;12.050;2023-03-29T12:42:05;3.40;;;1.58;;
75007;SDS011;63554;48.940;12.050;2023-03-29T12:46:15;3.25;;;1.60;;
75007;SDS011;63554;48.940;12.050;2023-03-29T12:50:21;2.92;;;1.48;;
75007;SDS011;63554;48.940;12.050;2023-03-29T12:54:30;4.20;;;1.42;;
75007;SDS011;63554;48.940;12.050;2023-03-29T12:58:47;1.48;;;1.25;;
75007;SDS011;63554;48.940;12.050;2023-03-29T13:03:00;3.10;;;1.55;;
75007;SDS011;63554;48.940;12.050;2023-03-29T13:07:05;2.42;;;1.58;;
75007;SDS011;63554;48.940;12.050;2023-03-29T13:11:22;1.65;;;1.02;;
75007;SDS011;63554;48.940;12.050;2023-03-29T13:15:32;3.85;;;1.48;;
75007;SDS011;63554;48.940;12.050;2023-03-29T13:19:37;2.83;;;1.95;;
75007;SDS011;63554;48.940;12.050;2023-03-29T13:23:50;2.90;;;1.42;;
75007;SDS011;63554;48.940;12.050;2023-03-29T13:28:01;2.30;;;1.65;;
75007;SDS011;63554;48.940;12.050;2023-03-29T13:32:20;2.78;;;2.58;;
75007;SDS011;63554;48.940;12.050;2023-03-29T13:36:37;5.50;;;2.03;;
75007;SDS011;63554;48.940;12.050;2023-03-29T13:40:59;1.90;;;1.63;;
75007;SDS011;63554;48.940;12.050;2023-03-29T13:45:11;2.03;;;1.45;;
75007;SDS011;63554;48.940;12.050;2023-03-29T13:49:19;2.05;;;1.85;;
75007;SDS011;63554;48.940;12.050;2023-03-29T13:53:25;3.85;;;1.63;;
75007;SDS011;63554;48.940;12.050;2023-03-29T13:57:33;3.33;;;1.77;;
75007;SDS011;63554;48.940;12.050;2023-03-29T14:01:42;2.03;;;1.58;;
75007;SDS011;63554;48.940;12.050;2023-03-29T14:05:53;2.53;;;1.38;;
75007;SDS011;63554;48.940;12.050;2023-03-29T14:10:00;3.40;;;1.80;;
75007;SDS011;63554;48.940;12.050;2023-03-29T14:14:03;1.58;;;1.48;;
75007;SDS011;63554;48.940;12.050;2023-03-29T14:18:08;4.32;;;2.03;;
75007;SDS011;63554;48.940;12.050;2023-03-29T14:22:14;2.88;;;1.80;;
75007;SDS011;63554;48.940;12.050;2023-03-29T14:30:24;2.88;;;1.77;;
75007;SDS011;63554;48.940;12.050;2023-03-29T14:34:28;2.35;;;1.35;;
75007;SDS011;63554;48.940;12.050;2023-03-29T14:38:34;1.85;;;1.60;;
75007;SDS011;63554;48.940;12.050;2023-03-29T14:42:37;4.53;;;1.88;;
75007;SDS011;63554;48.940;12.050;2023-03-29T14:46:41;3.00;;;2.03;;
75007;SDS011;63554;48.940;12.050;2023-03-29T14:50:47;5.15;;;1.75;;
75007;SDS011;63554;48.940;12.050;2023-03-29T14:54:53;3.47;;;1.90;;
75007;SDS011;63554;48.940;12.050;2023-03-29T14:58:57;2.00;;;1.63;;
75007;SDS011;63554;48.940;12.050;2023-03-29T15:03:11;2.63;;;1.75;;
75007;SDS011;63554;48.940;12.050;2023-03-29T15:07:14;2.95;;;1.77;;
75007;SDS011;63554;48.940;12.050;2023-03-29T15:11:19;2.13;;;1.38;;
75007;SDS011;63554;48.940;12.050;2023-03-29T15:15:24;1.75;;;1.63;;
75007;SDS011;63554;48.940;12.050;2023-03-29T15:19:27;2.00;;;1.77;;
75007;SDS011;63554;48.940;12.050;2023-03-29T15:23:34;3.03;;;1.50;;
75007;SDS011;63554;48.940;12.050;2023-03-29T15:27:41;1.67;;;1.23;;
75007;SDS011;63554;48.940;12.050;2023-03-29T15:31:52;1.92;;;1.30;;
75007;SDS011;63554;48.940;12.050;2023-03-29T15:35:55;3.08;;;2.22;;
75007;SDS011;63554;48.940;12.050;2023-03-29T15:39:58;2.92;;;1.58;;
75007;SDS011;63554;48.940;12.050;2023-03-29T15:44:07;2.25;;;1.67;;
75007;SDS011;63554;48.940;12.050;2023-03-29T15:48:12;3.08;;;1.55;;
75007;SDS011;63554;48.940;12.050;2023-03-29T15:52:16;4.47;;;2.67;;
75007;SDS011;63554;48.940;12.050;2023-03-29T15:56:19;5.57;;;2.70;;
75007;SDS011;63554;48.940;12.050;2023-03-29T16:00:24;4.53;;;3.00;;
75007;SDS011;63554;48.940;12.050;2023-03-29T16:04:27;4.00;;;2.63;;
75007;SDS011;63554;48.940;12.050;2023-03-29T16:08:30;3.33;;;2.70;;
75007;SDS011;63554;48.940;12.050;2023-03-29T16:12:33;4.60;;;2.72;;
75007;SDS011;63554;48.940;12.050;2023-03-29T16:16:39;6.97;;;2.63;;
75007;SDS011;63554;48.940;12.050;2023-03-29T16:20:42;6.80;;;2.65;;
75007;SDS011;63554;48.940;12.050;2023-03-29T16:24:46;3.72;;;2.88;;
75007;SDS011;63554;48.940;12.050;2023-03-29T16:28:48;4.03;;;2.55;;
75007;SDS011;63554;48.940;12.050;2023-03-29T16:32:52;4.05;;;3.13;;
75007;SDS011;63554;48.940;12.050;2023-03-29T16:36:55;5.95;;;3.15;;
75007;SDS011;63554;48.940;12.050;2023-03-29T16:40:58;4.45;;;3.05;;
75007;SDS011;63554;48.940;12.050;2023-03-29T16:45:01;3.92;;;3.35;;
75007;SDS011;63554;48.940;12.050;2023-03-29T16:49:06;4.30;;;2.65;;
75007;SDS011;63554;48.940;12.050;2023-03-29T16:53:08;4.60;;;3.50;;
75007;SDS011;63554;48.940;12.050;2023-03-29T16:57:11;7.13;;;5.00;;
75007;SDS011;63554;48.940;12.050;2023-03-29T17:01:14;4.00;;;3.42;;
75007;SDS011;63554;48.940;12.050;2023-03-29T17:05:20;6.75;;;2.92;;
75007;SDS011;63554;48.940;12.050;2023-03-29T17:09:23;4.18;;;2.95;;
75007;SDS011;63554;48.940;12.050;2023-03-29T17:13:29;5.47;;;3.53;;
75007;SDS011;63554;48.940;12.050;2023-03-29T17:17:32;5.53;;;3.72;;
75007;SDS011;63554;48.940;12.050;2023-03-29T17:21:36;4.35;;;3.15;;
75007;SDS011;63554;48.940;12.050;2023-03-29T17:25:39;4.47;;;2.75;;
75007;SDS011;63554;48.940;12.050;2023-03-29T17:29:44;5.13;;;3.45;;
75007;SDS011;63554;48.940;12.050;2023-03-29T17:33:47;4.40;;;3.13;;
75007;SDS011;63554;48.940;12.050;2023-03-29T17:37:53;4.22;;;3.00;;
75007;SDS011;63554;48.940;12.050;2023-03-29T17:41:56;6.60;;;4.35;;
75007;SDS011;63554;48.940;12.050;2023-03-29T17:45:58;5.50;;;4.10;;
75007;SDS011;63554;48.940;12.050;2023-03-29T17:50:02;5.13;;;3.80;;
75007;SDS011;63554;48.940;12.050;2023-03-29T17:54:06;5.18;;;3.78;;
75007;SDS011;63554;48.940;12.050;2023-03-29T17:58:09;3.88;;;2.90;;
75007;SDS011;63554;48.940;12.050;2023-03-29T18:02:12;4.00;;;2.97;;
75007;SDS011;63554;48.940;12.050;2023-03-29T18:06:18;3.45;;;3.05;;
75007;SDS011;63554;48.940;12.050;2023-03-29T18:10:22;5.50;;;3.55;;
75007;SDS011;63554;48.940;12.050;2023-03-29T18:14:25;4.75;;;3.40;;
75007;SDS011;63554;48.940;12.050;2023-03-29T18:18:27;4.75;;;3.70;;
75007;SDS011;63554;48.940;12.050;2023-03-29T18:22:30;5.50;;;3.00;;
75007;SDS011;63554;48.940;12.050;2023-03-29T18:26:35;6.13;;;3.65;;
75007;SDS011;63554;48.940;12.050;2023-03-29T18:30:38;5.30;;;3.78;;
75007;SDS011;63554;48.940;12.050;2023-03-29T18:34:41;5.32;;;3.83;;
75007;SDS011;63554;48.940;12.050;2023-03-29T18:38:44;5.88;;;3.25;;
75007;SDS011;63554;48.940;12.050;2023-03-29T18:42:48;6.07;;;4.28;;
75007;SDS011;63554;48.940;12.050;2023-03-29T18:46:52;5.03;;;3.45;;
75007;SDS011;63554;48.940;12.050;2023-03-29T18:50:56;4.45;;;3.47;;
75007;SDS011;63554;48.940;12.050;2023-03-29T18:54:59;6.45;;;3.63;;
75007;SDS011;63554;48.940;12.050;2023-03-29T18:59:03;4.28;;;3.13;;
75007;SDS011;63554;48.940;12.050;2023-03-29T19:03:07;5.80;;;3.78;;
75007;SDS011;63554;48.940;12.050;2023-03-29T19:07:10;4.40;;;3.25;;
75007;SDS011;63554;48.940;12.050;2023-03-29T19:11:13;9.70;;;3.50;;
75007;SDS011;63554;48.940;12.050;2023-03-29T19:15:17;7.00;;;3.15;;
75007;SDS011;63554;48.940;12.050;2023-03-29T19:19:20;4.65;;;3.92;;
75007;SDS011;63554;48.940;12.050;2023-03-29T19:23:26;7.03;;;3.25;;
75007;SDS011;63554;48.940;12.050;2023-03-29T19:27:29;7.95;;;3.42;;
75007;SDS011;63554;48.940;12.050;2023-03-29T19:31:33;5.32;;;3.53;;
75007;SDS011;63554;48.940;12.050;2023-03-29T19:35:38;5.75;;;3.42;;
75007;SDS011;63554;48.940;12.050;2023-03-29T19:39:41;5.00;;;2.75;;
75007;SDS011;63554;48.940;12.050;2023-03-29T19:43:44;4.55;;;3.15;;
75007;SDS011;63554;48.940;12.050;2023-03-29T19:47:48;5.13;;;3.42;;
75007;SDS011;63554;48.940;12.050;2023-03-29T19:51:55;4.25;;;3.30;;
75007;SDS011;63554;48.940;12.050;2023-03-29T19:55:58;5.60;;;3.30;;
75007;SDS011;63554;48.940;12.050;2023-03-29T20:00:03;7.45;;;3.63;;
75007;SDS011;63554;48.940;12.050;2023-03-29T20:04:09;7.90;;;3.05;;
75007;SDS011;63554;48.940;12.050;2023-03-29T20:08:12;5.95;;;3.55;;
75007;SDS011;63554;48.940;12.050;2023-03-29T20:12:15;6.05;;;4.40;;
75007;SDS011;63554;48.940;12.050;2023-03-29T20:16:18;6.10;;;3.78;;
75007;SDS011;63554;48.940;12.050;2023-03-29T20:20:27;7.00;;;3.75;;
75007;SDS011;63554;48.940;12.050;2023-03-29T20:24:30;5.22;;;3.53;;
75007;SDS011;63554;48.940;12.050;2023-03-29T20:28:35;6.60;;;3.22;;
75007;SDS011;63554;48.940;12.050;2023-03-29T20:32:38;4.18;;;3.13;;
75007;SDS011;63554;48.940;12.050;2023-03-29T20:36:43;5.90;;;3.40;;
75007;SDS011;63554;48.940;12.050;2023-03-29T20:40:47;6.05;;;3.20;;
75007;SDS011;63554;48.940;12.050;2023-03-29T20:44:50;5.22;;;3.33;;
75007;SDS011;63554;48.940;12.050;2023-03-29T20:48:54;4.03;;;3.08;;
75007;SDS011;63554;48.940;12.050;2023-03-29T20:52:58;6.13;;;3.47;;
75007;SDS011;63554;48.940;12.050;2023-03-29T20:57:04;5.68;;;4.03;;
75007;SDS011;63554;48.940;12.050;2023-03-29T21:01:08;5.80;;;3.58;;
75007;SDS011;63554;48.940;12.050;2023-03-29T21:05:13;6.47;;;4.07;;
75007;SDS011;63554;48.940;12.050;2023-03-29T21:09:18;8.30;;;4.40;;
75007;SDS011;63554;48.940;12.050;2023-03-29T21:13:23;7.70;;;3.97;;
75007;SDS011;63554;48.940;12.050;2023-03-29T21:17:27;5.97;;;3.35;;
75007;SDS011;63554;48.940;12.050;2023-03-29T21:21:30;6.72;;;4.38;;
75007;SDS011;63554;48.940;12.050;2023-03-29T21:25:35;5.57;;;3.70;;
75007;SDS011;63554;48.940;12.050;2023-03-29T21:29:38;6.03;;;3.53;;
75007;SDS011;63554;48.940;12.050;2023-03-29T21:33:42;7.03;;;4.22;;
75007;SDS011;63554;48.940;12.050;2023-03-29T21:37:45;9.55;;;4.03;;
75007;SDS011;63554;48.940;12.050;2023-03-29T21:41:49;6.70;;;4.10;;
75007;SDS011;63554;48.940;12.050;2023-03-29T21:45:52;9.98;;;4.40;;
75007;SDS011;63554;48.940;12.050;2023-03-29T21:49:55;6.80;;;4.78;;
75007;SDS011;63554;48.940;12.050;2023-03-29T21:53:57;7.97;;;4.13;;
75007;SDS011;63554;48.940;12.050;2023-03-29T21:58:02;8.20;;;4.28;;
75007;SDS011;63554;48.940;12.050;2023-03-29T22:02:05;5.63;;;3.55;;
75007;SDS011;63554;48.940;12.050;2023-03-29T22:06:10;7.82;;;4.32;;
75007;SDS011;63554;48.940;12.050;2023-03-29T22:10:14;9.57;;;4.63;;
75007;SDS011;63554;48.940;12.050;2023-03-29T22:14:24;7.13;;;4.93;;
75007;SDS011;63554;48.940;12.050;2023-03-29T22:18:29;7.88;;;5.13;;
75007;SDS011;63554;48.940;12.050;2023-03-29T22:22:43;8.35;;;5.10;;
75007;SDS011;63554;48.940;12.050;2023-03-29T22:26:49;9.32;;;5.15;;
75007;SDS011;63554;48.940;12.050;2023-03-29T22:30:53;6.43;;;4.45;;
75007;SDS011;63554;48.940;12.050;2023-03-29T22:34:56;8.38;;;4.95;;
75007;SDS011;63554;48.940;12.050;2023-03-29T22:38:59;10.57;;;4.88;;
75007;SDS011;63554;48.940;12.050;2023-03-29T22:43:02;9.07;;;5.75;;
75007;SDS011;63554;48.940;12.050;2023-03-29T22:47:07;7.18;;;4.43;;
75007;SDS011;63554;48.940;12.050;2023-03-29T22:51:10;8.57;;;5.45;;
75007;SDS011;63554;48.940;12.050;2023-03-29T22:55:13;8.65;;;5.68;;
75007;SDS011;63554;48.940;12.050;2023-03-29T22:59:16;7.53;;;5.00;;
75007;SDS011;63554;48.940;12.050;2023-03-29T23:03:20;7.22;;;4.93;;
75007;SDS011;63554;48.940;12.050;2023-03-29T23:07:23;9.18;;;5.20;;
75007;SDS011;63554;48.940;12.050;2023-03-29T23:11:26;12.15;;;6.05;;
75007;SDS011;63554;48.940;12.050;2023-03-29T23:15:28;11.23;;;5.60;;
75007;SDS011;63554;48.940;12.050;2023-03-29T23:19:33;7.45;;;5.13;;
75007;SDS011;63554;48.940;12.050;2023-03-29T23:23:36;7.95;;;5.93;;
75007;SDS011;63554;48.940;12.050;2023-03-29T23:27:39;9.93;;;5.03;;
75007;SDS011;63554;48.940;12.050;2023-03-29T23:31:43;8.48;;;5.25;;
75007;SDS011;63554;48.940;12.050;2023-03-29T23:35:49;8.02;;;5.13;;
75007;SDS011;63554;48.940;12.050;2023-03-29T23:39:52;7.70;;;4.65;;
75007;SDS011;63554;48.940;12.050;2023-03-29T23:43:54;10.85;;;5.95;;
75007;SDS011;63554;48.940;12.050;2023-03-29T23:47:57;8.02;;;5.03;;
75007;SDS011;63554;48.940;12.050;2023-03-29T23:52:01;7.20;;;4.93;;
75007;SDS011;63554;48.940;12.050;2023-03-29T23:56:05;8.73;;;5.35;;
